sensor_id;sensor_type;location;lat;lon;timestamp;temperature;humidity
14798;DHT22;7490;63.708;20.368;2023-02-23T00:01:23;2.10;91.50
14798;DHT22;7490;63.708;20.368;2023-02-23T00:03:50;1.90;91.40
14798;DHT22;7490;63.708;20.368;2023-02-23T00:06:19;1.90;91.50
14798;DHT22;7490;63.708;20.368;2023-02-23T00:08:45;1.90;91.40
14798;DHT22;7490;63.708;20.368;2023-02-23T00:11:15;1.90;91.50
14798;DHT22;7490;63.708;20.368;2023-02-23T00:13:42;1.90;91.50
14798;DHT22;7490;63.708;20.368;2023-02-23T00:16:15;1.90;91.60
14798;DHT22;7490;63.708;20.368;2023-02-23T00:18:49;1.90;91.60
14798;DHT22;7490;63.708;20.368;2023-02-23T00:21:24;1.90;91.80
14798;DHT22;7490;63.708;20.368;2023-02-23T00:23:53;1.90;91.80
14798;DHT22;7490;63.708;20.368;2023-02-23T00:26:21;1.90;91.90
14798;DHT22;7490;63.708;20.368;2023-02-23T00:28:48;1.90;91.90
14798;DHT22;7490;63.708;20.368;2023-02-23T00:31:17;2.10;92.00
14798;DHT22;7490;63.708;20.368;2023-02-23T00:33:43;2.00;92.10
14798;DHT22;7490;63.708;20.368;2023-02-23T00:36:12;1.90;92.10
14798;DHT22;7490;63.708;20.368;2023-02-23T00:38:39;1.90;92.20
14798;DHT22;7490;63.708;20.368;2023-02-23T00:41:06;1.90;92.20
14798;DHT22;7490;63.708;20.368;2023-02-23T00:43:37;2.00;92.20
14798;DHT22;7490;63.708;20.368;2023-02-23T00:46:04;1.90;92.20
14798;DHT22;7490;63.708;20.368;2023-02-23T00:48:31;2.10;92.30
14798;DHT22;7490;63.708;20.368;2023-02-23T00:51:04;2.00;92.40
14798;DHT22;7490;63.708;20.368;2023-02-23T00:53:31;1.90;92.40
14798;DHT22;7490;63.708;20.368;2023-02-23T00:55:57;2.00;92.50
14798;DHT22;7490;63.708;20.368;2023-02-23T00:58:24;1.90;92.50
14798;DHT22;7490;63.708;20.368;2023-02-23T01:00:51;1.90;92.60
14798;DHT22;7490;63.708;20.368;2023-02-23T01:03:17;1.90;92.60
14798;DHT22;7490;63.708;20.368;2023-02-23T01:05:43;1.90;92.70
14798;DHT22;7490;63.708;20.368;2023-02-23T01:08:09;1.90;92.70
14798;DHT22;7490;63.708;20.368;2023-02-23T01:10:39;1.90;92.70
14798;DHT22;7490;63.708;20.368;2023-02-23T01:13:06;2.10;92.90
14798;DHT22;7490;63.708;20.368;2023-02-23T01:15:31;1.90;92.90
14798;DHT22;7490;63.708;20.368;2023-02-23T01:17:57;2.00;93.00
14798;DHT22;7490;63.708;20.368;2023-02-23T01:20:23;1.90;92.90
14798;DHT22;7490;63.708;20.368;2023-02-23T01:22:50;1.90;93.00
14798;DHT22;7490;63.708;20.368;2023-02-23T01:25:17;2.00;93.20
14798;DHT22;7490;63.708;20.368;2023-02-23T01:27:43;2.00;93.20
14798;DHT22;7490;63.708;20.368;2023-02-23T01:30:11;2.00;93.30
14798;DHT22;7490;63.708;20.368;2023-02-23T01:32:38;2.00;93.30
14798;DHT22;7490;63.708;20.368;2023-02-23T01:35:08;2.20;93.30
14798;DHT22;7490;63.708;20.368;2023-02-23T01:37:39;2.10;93.40
14798;DHT22;7490;63.708;20.368;2023-02-23T01:40:09;2.10;93.40
14798;DHT22;7490;63.708;20.368;2023-02-23T01:42:39;2.10;93.40
14798;DHT22;7490;63.708;20.368;2023-02-23T01:47:44;2.10;93.40
14798;DHT22;7490;63.708;20.368;2023-02-23T01:50:10;2.20;93.50
14798;DHT22;7490;63.708;20.368;2023-02-23T01:52:37;2.20;93.50
14798;DHT22;7490;63.708;20.368;2023-02-23T01:55:04;2.20;93.50
14798;DHT22;7490;63.708;20.368;2023-02-23T01:57:31;2.20;93.60
14798;DHT22;7490;63.708;20.368;2023-02-23T01:59:56;2.20;93.60
14798;DHT22;7490;63.708;20.368;2023-02-23T02:02:25;2.20;93.60
14798;DHT22;7490;63.708;20.368;2023-02-23T02:04:59;2.20;93.70
14798;DHT22;7490;63.708;20.368;2023-02-23T02:07:28;2.20;94.10
14798;DHT22;7490;63.708;20.368;2023-02-23T02:09:56;2.20;93.70
14798;DHT22;7490;63.708;20.368;2023-02-23T02:12:38;2.50;93.80
14798;DHT22;7490;63.708;20.368;2023-02-23T02:15:06;2.20;93.80
14798;DHT22;7490;63.708;20.368;2023-02-23T02:42:56;2.10;94.10
14798;DHT22;7490;63.708;20.368;2023-02-23T02:51:04;2.10;94.20
14798;DHT22;7490;63.708;20.368;2023-02-23T02:56:25;2.20;94.20
14798;DHT22;7490;63.708;20.368;2023-02-23T02:58:52;2.30;94.20
14798;DHT22;7490;63.708;20.368;2023-02-23T03:01:19;2.20;94.10
14798;DHT22;7490;63.708;20.368;2023-02-23T03:04:21;2.20;94.20
14798;DHT22;7490;63.708;20.368;2023-02-23T03:07:30;2.20;94.10
14798;DHT22;7490;63.708;20.368;2023-02-23T03:22:37;2.20;94.00
14798;DHT22;7490;63.708;20.368;2023-02-23T03:28:26;2.20;94.00
14798;DHT22;7490;63.708;20.368;2023-02-23T03:37:43;2.10;93.90
14798;DHT22;7490;63.708;20.368;2023-02-23T03:40:15;2.10;93.90
14798;DHT22;7490;63.708;20.368;2023-02-23T03:43:04;2.10;93.80
14798;DHT22;7490;63.708;20.368;2023-02-23T03:45:50;2.10;93.80
14798;DHT22;7490;63.708;20.368;2023-02-23T03:48:36;2.10;93.80
14798;DHT22;7490;63.708;20.368;2023-02-23T03:51:23;2.10;93.80
14798;DHT22;7490;63.708;20.368;2023-02-23T03:54:17;2.10;93.90
14798;DHT22;7490;63.708;20.368;2023-02-23T03:57:07;2.10;93.90
14798;DHT22;7490;63.708;20.368;2023-02-23T03:59:56;2.10;93.90
14798;DHT22;7490;63.708;20.368;2023-02-23T04:02:45;2.10;93.90
14798;DHT22;7490;63.708;20.368;2023-02-23T04:05:30;2.10;93.90
14798;DHT22;7490;63.708;20.368;2023-02-23T04:08:18;2.10;93.80
14798;DHT22;7490;63.708;20.368;2023-02-23T04:11:15;2.10;93.70
14798;DHT22;7490;63.708;20.368;2023-02-23T04:14:06;2.00;93.70
14798;DHT22;7490;63.708;20.368;2023-02-23T04:16:33;2.00;93.70
14798;DHT22;7490;63.708;20.368;2023-02-23T04:19:00;2.00;93.80
14798;DHT22;7490;63.708;20.368;2023-02-23T04:21:25;2.20;93.80
14798;DHT22;7490;63.708;20.368;2023-02-23T04:23:51;2.00;93.80
14798;DHT22;7490;63.708;20.368;2023-02-23T04:26:17;2.00;93.70
14798;DHT22;7490;63.708;20.368;2023-02-23T04:28:42;2.20;93.80
14798;DHT22;7490;63.708;20.368;2023-02-23T04:31:08;2.00;93.70
14798;DHT22;7490;63.708;20.368;2023-02-23T04:33:33;2.00;93.70
14798;DHT22;7490;63.708;20.368;2023-02-23T04:35:59;2.00;93.70
14798;DHT22;7490;63.708;20.368;2023-02-23T04:38:25;1.90;93.70
14798;DHT22;7490;63.708;20.368;2023-02-23T04:40:50;1.90;93.70
14798;DHT22;7490;63.708;20.368;2023-02-23T04:43:16;1.90;93.70
14798;DHT22;7490;63.708;20.368;2023-02-23T04:45:43;1.90;93.70
14798;DHT22;7490;63.708;20.368;2023-02-23T04:48:09;1.90;93.70
14798;DHT22;7490;63.708;20.368;2023-02-23T04:50:34;1.90;93.70
14798;DHT22;7490;63.708;20.368;2023-02-23T04:53:00;1.90;93.70
14798;DHT22;7490;63.708;20.368;2023-02-23T04:55:26;1.90;93.70
14798;DHT22;7490;63.708;20.368;2023-02-23T04:57:56;1.80;93.70
14798;DHT22;7490;63.708;20.368;2023-02-23T05:00:23;1.80;93.70
14798;DHT22;7490;63.708;20.368;2023-02-23T05:02:49;1.90;93.80
14798;DHT22;7490;63.708;20.368;2023-02-23T05:05:15;1.80;93.70
14798;DHT22;7490;63.708;20.368;2023-02-23T05:07:41;1.80;93.70
14798;DHT22;7490;63.708;20.368;2023-02-23T05:10:07;1.90;93.80
14798;DHT22;7490;63.708;20.368;2023-02-23T05:12:33;1.80;94.10
14798;DHT22;7490;63.708;20.368;2023-02-23T05:14:59;1.80;93.70
14798;DHT22;7490;63.708;20.368;2023-02-23T05:17:24;1.80;93.70
14798;DHT22;7490;63.708;20.368;2023-02-23T05:19:50;1.90;93.80
14798;DHT22;7490;63.708;20.368;2023-02-23T05:22:16;1.80;93.70
14798;DHT22;7490;63.708;20.368;2023-02-23T05:24:42;1.90;93.70
14798;DHT22;7490;63.708;20.368;2023-02-23T05:27:09;2.00;93.70
14798;DHT22;7490;63.708;20.368;2023-02-23T05:29:36;1.90;93.70
14798;DHT22;7490;63.708;20.368;2023-02-23T05:32:01;1.80;93.70
14798;DHT22;7490;63.708;20.368;2023-02-23T05:34:27;1.90;93.70
14798;DHT22;7490;63.708;20.368;2023-02-23T05:36:53;1.80;93.70
14798;DHT22;7490;63.708;20.368;2023-02-23T05:39:19;1.80;93.70
14798;DHT22;7490;63.708;20.368;2023-02-23T05:41:45;1.80;93.70
14798;DHT22;7490;63.708;20.368;2023-02-23T05:44:10;2.00;93.80
14798;DHT22;7490;63.708;20.368;2023-02-23T05:46:36;1.80;93.70
14798;DHT22;7490;63.708;20.368;2023-02-23T05:49:02;2.00;93.70
14798;DHT22;7490;63.708;20.368;2023-02-23T05:51:30;1.80;93.70
14798;DHT22;7490;63.708;20.368;2023-02-23T05:53:56;1.80;93.70
14798;DHT22;7490;63.708;20.368;2023-02-23T05:56:22;1.80;93.60
14798;DHT22;7490;63.708;20.368;2023-02-23T05:58:49;1.80;93.60
14798;DHT22;7490;63.708;20.368;2023-02-23T06:01:15;2.10;93.70
14798;DHT22;7490;63.708;20.368;2023-02-23T06:03:42;1.80;93.60
14798;DHT22;7490;63.708;20.368;2023-02-23T06:06:08;1.80;93.60
14798;DHT22;7490;63.708;20.368;2023-02-23T06:08:34;1.80;93.60
14798;DHT22;7490;63.708;20.368;2023-02-23T06:10:59;1.90;93.60
14798;DHT22;7490;63.708;20.368;2023-02-23T06:13:26;1.80;93.50
14798;DHT22;7490;63.708;20.368;2023-02-23T06:15:53;1.80;93.60
14798;DHT22;7490;63.708;20.368;2023-02-23T06:18:18;1.80;93.50
14798;DHT22;7490;63.708;20.368;2023-02-23T06:20:46;1.80;93.50
14798;DHT22;7490;63.708;20.368;2023-02-23T06:23:12;1.80;93.60
14798;DHT22;7490;63.708;20.368;2023-02-23T06:25:40;1.80;93.60
14798;DHT22;7490;63.708;20.368;2023-02-23T06:28:06;1.80;93.60
14798;DHT22;7490;63.708;20.368;2023-02-23T06:30:33;1.90;93.60
14798;DHT22;7490;63.708;20.368;2023-02-23T06:32:59;1.80;93.70
14798;DHT22;7490;63.708;20.368;2023-02-23T06:35:25;1.80;93.60
14798;DHT22;7490;63.708;20.368;2023-02-23T06:37:52;1.80;93.60
14798;DHT22;7490;63.708;20.368;2023-02-23T06:40:18;1.80;93.70
14798;DHT22;7490;63.708;20.368;2023-02-23T06:42:44;1.90;93.70
14798;DHT22;7490;63.708;20.368;2023-02-23T06:45:10;1.90;93.70
14798;DHT22;7490;63.708;20.368;2023-02-23T06:47:38;1.90;93.60
14798;DHT22;7490;63.708;20.368;2023-02-23T06:50:05;1.90;93.70
14798;DHT22;7490;63.708;20.368;2023-02-23T06:52:31;2.00;93.60
14798;DHT22;7490;63.708;20.368;2023-02-23T06:54:57;2.00;93.60
14798;DHT22;7490;63.708;20.368;2023-02-23T06:57:23;2.10;93.70
14798;DHT22;7490;63.708;20.368;2023-02-23T06:59:49;2.10;93.60
14798;DHT22;7490;63.708;20.368;2023-02-23T07:02:14;2.10;93.60
14798;DHT22;7490;63.708;20.368;2023-02-23T07:04:40;2.40;93.70
14798;DHT22;7490;63.708;20.368;2023-02-23T07:07:06;2.30;93.60
14798;DHT22;7490;63.708;20.368;2023-02-23T07:09:31;2.30;93.50
14798;DHT22;7490;63.708;20.368;2023-02-23T07:11:58;2.30;93.50
14798;DHT22;7490;63.708;20.368;2023-02-23T07:14:24;2.30;93.50
14798;DHT22;7490;63.708;20.368;2023-02-23T07:16:50;2.30;93.50
14798;DHT22;7490;63.708;20.368;2023-02-23T07:19:15;2.40;93.40
14798;DHT22;7490;63.708;20.368;2023-02-23T07:21:41;2.30;93.40
14798;DHT22;7490;63.708;20.368;2023-02-23T07:24:07;2.30;93.50
14798;DHT22;7490;63.708;20.368;2023-02-23T07:26:33;2.40;93.60
14798;DHT22;7490;63.708;20.368;2023-02-23T07:29:00;2.40;93.50
14798;DHT22;7490;63.708;20.368;2023-02-23T07:31:26;2.40;93.50
14798;DHT22;7490;63.708;20.368;2023-02-23T07:33:52;2.40;93.50
14798;DHT22;7490;63.708;20.368;2023-02-23T07:36:22;2.50;93.60
14798;DHT22;7490;63.708;20.368;2023-02-23T07:38:48;2.50;93.60
14798;DHT22;7490;63.708;20.368;2023-02-23T07:41:13;2.60;93.60
14798;DHT22;7490;63.708;20.368;2023-02-23T07:43:39;2.70;93.60
14798;DHT22;7490;63.708;20.368;2023-02-23T07:46:05;2.60;93.50
14798;DHT22;7490;63.708;20.368;2023-02-23T07:48:31;2.70;93.60
14798;DHT22;7490;63.708;20.368;2023-02-23T07:50:57;2.70;93.60
14798;DHT22;7490;63.708;20.368;2023-02-23T07:53:26;2.80;93.60
14798;DHT22;7490;63.708;20.368;2023-02-23T07:55:59;2.90;93.50
14798;DHT22;7490;63.708;20.368;2023-02-23T07:58:26;2.80;93.50
14798;DHT22;7490;63.708;20.368;2023-02-23T08:00:52;2.80;93.50
14798;DHT22;7490;63.708;20.368;2023-02-23T08:03:18;2.90;93.90
14798;DHT22;7490;63.708;20.368;2023-02-23T08:05:43;3.00;93.50
14798;DHT22;7490;63.708;20.368;2023-02-23T08:08:10;3.10;93.50
14798;DHT22;7490;63.708;20.368;2023-02-23T08:10:37;3.00;93.50
14798;DHT22;7490;63.708;20.368;2023-02-23T08:13:03;3.00;93.50
14798;DHT22;7490;63.708;20.368;2023-02-23T08:15:29;3.00;93.40
14798;DHT22;7490;63.708;20.368;2023-02-23T08:17:56;3.00;93.30
14798;DHT22;7490;63.708;20.368;2023-02-23T08:20:22;3.00;93.20
14798;DHT22;7490;63.708;20.368;2023-02-23T08:22:53;3.10;93.30
14798;DHT22;7490;63.708;20.368;2023-02-23T08:25:19;3.20;93.60
14798;DHT22;7490;63.708;20.368;2023-02-23T08:27:45;3.20;93.60
14798;DHT22;7490;63.708;20.368;2023-02-23T08:30:11;3.30;93.60
14798;DHT22;7490;63.708;20.368;2023-02-23T08:32:38;3.30;93.90
14798;DHT22;7490;63.708;20.368;2023-02-23T08:35:04;3.40;93.50
14798;DHT22;7490;63.708;20.368;2023-02-23T08:37:31;3.40;93.40
14798;DHT22;7490;63.708;20.368;2023-02-23T08:39:57;3.40;93.20
14798;DHT22;7490;63.708;20.368;2023-02-23T08:42:23;3.40;93.20
14798;DHT22;7490;63.708;20.368;2023-02-23T08:44:49;3.40;93.10
14798;DHT22;7490;63.708;20.368;2023-02-23T08:47:15;3.40;93.50
14798;DHT22;7490;63.708;20.368;2023-02-23T08:49:50;3.40;93.10
14798;DHT22;7490;63.708;20.368;2023-02-23T08:52:16;3.50;93.60
14798;DHT22;7490;63.708;20.368;2023-02-23T08:54:42;3.70;93.90
14798;DHT22;7490;63.708;20.368;2023-02-23T08:57:07;4.00;94.00
14798;DHT22;7490;63.708;20.368;2023-02-23T08:59:33;4.30;94.10
14798;DHT22;7490;63.708;20.368;2023-02-23T09:01:59;4.90;94.50
14798;DHT22;7490;63.708;20.368;2023-02-23T09:04:24;5.70;94.10
14798;DHT22;7490;63.708;20.368;2023-02-23T09:06:50;6.00;93.10
14798;DHT22;7490;63.708;20.368;2023-02-23T09:09:16;6.10;92.50
14798;DHT22;7490;63.708;20.368;2023-02-23T09:11:42;5.90;92.40
14798;DHT22;7490;63.708;20.368;2023-02-23T09:14:10;5.90;92.60
14798;DHT22;7490;63.708;20.368;2023-02-23T09:16:35;5.80;92.50
14798;DHT22;7490;63.708;20.368;2023-02-23T09:19:02;5.70;92.30
14798;DHT22;7490;63.708;20.368;2023-02-23T09:21:28;5.70;92.50
14798;DHT22;7490;63.708;20.368;2023-02-23T09:23:54;5.70;92.40
14798;DHT22;7490;63.708;20.368;2023-02-23T09:26:21;5.60;92.20
14798;DHT22;7490;63.708;20.368;2023-02-23T09:28:48;5.60;92.30
14798;DHT22;7490;63.708;20.368;2023-02-23T09:31:17;5.60;92.40
14798;DHT22;7490;63.708;20.368;2023-02-23T09:33:43;5.70;92.80
14798;DHT22;7490;63.708;20.368;2023-02-23T09:36:11;6.00;93.00
14798;DHT22;7490;63.708;20.368;2023-02-23T09:38:39;6.50;93.20
14798;DHT22;7490;63.708;20.368;2023-02-23T09:41:19;7.30;93.10
14798;DHT22;7490;63.708;20.368;2023-02-23T09:49:22;8.60;90.70
14798;DHT22;7490;63.708;20.368;2023-02-23T09:51:50;8.50;90.10
14798;DHT22;7490;63.708;20.368;2023-02-23T09:54:22;8.20;90.00
14798;DHT22;7490;63.708;20.368;2023-02-23T09:56:48;8.00;90.10
14798;DHT22;7490;63.708;20.368;2023-02-23T09:59:17;7.90;90.30
14798;DHT22;7490;63.708;20.368;2023-02-23T10:07:08;8.00;90.30
14798;DHT22;7490;63.708;20.368;2023-02-23T10:13:11;7.70;89.40
14798;DHT22;7490;63.708;20.368;2023-02-23T10:21:22;6.90;89.30
14798;DHT22;7490;63.708;20.368;2023-02-23T10:24:03;6.90;90.00
14798;DHT22;7490;63.708;20.368;2023-02-23T10:26:47;6.80;90.20
14798;DHT22;7490;63.708;20.368;2023-02-23T10:31:51;6.40;90.30
14798;DHT22;7490;63.708;20.368;2023-02-23T10:34:18;6.30;90.30
14798;DHT22;7490;63.708;20.368;2023-02-23T10:39:12;6.30;90.50
14798;DHT22;7490;63.708;20.368;2023-02-23T10:41:38;6.30;90.50
14798;DHT22;7490;63.708;20.368;2023-02-23T10:44:06;6.30;90.50
14798;DHT22;7490;63.708;20.368;2023-02-23T10:46:38;6.30;90.60
14798;DHT22;7490;63.708;20.368;2023-02-23T10:49:06;6.40;90.70
14798;DHT22;7490;63.708;20.368;2023-02-23T10:51:36;6.50;90.70
14798;DHT22;7490;63.708;20.368;2023-02-23T10:54:38;6.60;90.70
14798;DHT22;7490;63.708;20.368;2023-02-23T10:57:10;6.80;90.80
14798;DHT22;7490;63.708;20.368;2023-02-23T10:59:41;7.00;90.60
14798;DHT22;7490;63.708;20.368;2023-02-23T11:02:23;7.20;90.60
14798;DHT22;7490;63.708;20.368;2023-02-23T11:04:54;7.40;90.50
14798;DHT22;7490;63.708;20.368;2023-02-23T11:07:26;7.70;90.90
14798;DHT22;7490;63.708;20.368;2023-02-23T11:09:55;8.60;90.90
14798;DHT22;7490;63.708;20.368;2023-02-23T11:14:56;9.80;87.90
14798;DHT22;7490;63.708;20.368;2023-02-23T11:17:32;10.20;86.50
14798;DHT22;7490;63.708;20.368;2023-02-23T11:20:29;10.40;84.60
14798;DHT22;7490;63.708;20.368;2023-02-23T11:22:56;10.20;83.80
14798;DHT22;7490;63.708;20.368;2023-02-23T11:27:50;9.60;83.20
14798;DHT22;7490;63.708;20.368;2023-02-23T11:30:22;9.40;83.50
14798;DHT22;7490;63.708;20.368;2023-02-23T11:32:52;9.10;83.80
14798;DHT22;7490;63.708;20.368;2023-02-23T11:37:47;9.10;84.40
14798;DHT22;7490;63.708;20.368;2023-02-23T11:42:52;9.20;84.50
14798;DHT22;7490;63.708;20.368;2023-02-23T11:45:19;9.20;83.40
14798;DHT22;7490;63.708;20.368;2023-02-23T11:47:48;9.00;82.70
14798;DHT22;7490;63.708;20.368;2023-02-23T11:50:29;8.70;83.00
14798;DHT22;7490;63.708;20.368;2023-02-23T11:53:16;8.40;82.90
14798;DHT22;7490;63.708;20.368;2023-02-23T11:55:51;8.00;82.90
14798;DHT22;7490;63.708;20.368;2023-02-23T11:58:45;7.60;83.10
14798;DHT22;7490;63.708;20.368;2023-02-23T12:01:14;7.30;84.40
14798;DHT22;7490;63.708;20.368;2023-02-23T12:06:30;6.90;86.50
14798;DHT22;7490;63.708;20.368;2023-02-23T12:09:08;6.80;87.00
14798;DHT22;7490;63.708;20.368;2023-02-23T12:11:41;6.70;87.50
14798;DHT22;7490;63.708;20.368;2023-02-23T12:14:31;6.70;87.70
14798;DHT22;7490;63.708;20.368;2023-02-23T12:17:03;6.60;88.20
14798;DHT22;7490;63.708;20.368;2023-02-23T12:19:38;6.60;88.50
14798;DHT22;7490;63.708;20.368;2023-02-23T12:22:10;6.50;88.30
14798;DHT22;7490;63.708;20.368;2023-02-23T12:24:53;6.50;88.30
14798;DHT22;7490;63.708;20.368;2023-02-23T12:27:46;6.40;88.20
14798;DHT22;7490;63.708;20.368;2023-02-23T12:30:26;6.30;88.50
14798;DHT22;7490;63.708;20.368;2023-02-23T12:33:05;6.30;88.70
14798;DHT22;7490;63.708;20.368;2023-02-23T12:38:20;6.10;88.90
14798;DHT22;7490;63.708;20.368;2023-02-23T12:40:53;6.10;88.90
14798;DHT22;7490;63.708;20.368;2023-02-23T12:43:36;6.00;88.90
14798;DHT22;7490;63.708;20.368;2023-02-23T12:46:11;6.00;88.90
14798;DHT22;7490;63.708;20.368;2023-02-23T12:51:27;5.90;89.00
14798;DHT22;7490;63.708;20.368;2023-02-23T12:53:54;5.80;89.10
14798;DHT22;7490;63.708;20.368;2023-02-23T12:56:33;5.70;89.00
14798;DHT22;7490;63.708;20.368;2023-02-23T13:02:03;5.60;89.20
14798;DHT22;7490;63.708;20.368;2023-02-23T13:04:43;5.50;89.40
14798;DHT22;7490;63.708;20.368;2023-02-23T13:07:41;5.50;89.40
14798;DHT22;7490;63.708;20.368;2023-02-23T13:21:36;5.10;90.20
14798;DHT22;7490;63.708;20.368;2023-02-23T13:24:25;5.10;89.90
14798;DHT22;7490;63.708;20.368;2023-02-23T13:29:37;5.00;90.00
14798;DHT22;7490;63.708;20.368;2023-02-23T13:32:10;4.90;90.00
14798;DHT22;7490;63.708;20.368;2023-02-23T13:35:01;4.90;90.00
14798;DHT22;7490;63.708;20.368;2023-02-23T13:38:02;4.80;90.00
14798;DHT22;7490;63.708;20.368;2023-02-23T13:40:44;4.80;90.00
14798;DHT22;7490;63.708;20.368;2023-02-23T13:48:32;4.60;90.00
14798;DHT22;7490;63.708;20.368;2023-02-23T13:56:27;4.40;90.00
14798;DHT22;7490;63.708;20.368;2023-02-23T13:59:02;4.40;90.10
14798;DHT22;7490;63.708;20.368;2023-02-23T14:01:32;4.30;90.10
14798;DHT22;7490;63.708;20.368;2023-02-23T14:04:02;4.30;90.10
14798;DHT22;7490;63.708;20.368;2023-02-23T14:06:31;4.20;90.10
14798;DHT22;7490;63.708;20.368;2023-02-23T14:09:06;4.20;90.10
14798;DHT22;7490;63.708;20.368;2023-02-23T14:11:51;4.10;90.20
14798;DHT22;7490;63.708;20.368;2023-02-23T14:19:43;4.20;
14798;DHT22;7490;63.708;20.368;2023-02-23T14:22:21;3.90;90.50
14798;DHT22;7490;63.708;20.368;2023-02-23T14:27:56;3.80;90.20
14798;DHT22;7490;63.708;20.368;2023-02-23T14:30:26;3.80;90.10
14798;DHT22;7490;63.708;20.368;2023-02-23T14:32:54;3.70;90.10
14798;DHT22;7490;63.708;20.368;2023-02-23T14:38:09;3.60;90.00
14798;DHT22;7490;63.708;20.368;2023-02-23T14:40:40;3.50;90.00
14798;DHT22;7490;63.708;20.368;2023-02-23T14:43:30;3.40;89.80
14798;DHT22;7490;63.708;20.368;2023-02-23T14:45:57;3.30;89.80
14798;DHT22;7490;63.708;20.368;2023-02-23T14:48:23;3.20;89.70
14798;DHT22;7490;63.708;20.368;2023-02-23T14:50:50;3.20;89.80
14798;DHT22;7490;63.708;20.368;2023-02-23T14:53:19;3.10;89.90
14798;DHT22;7490;63.708;20.368;2023-02-23T14:55:46;3.00;90.00
14798;DHT22;7490;63.708;20.368;2023-02-23T14:58:26;2.90;89.90
14798;DHT22;7490;63.708;20.368;2023-02-23T15:00:52;2.90;90.00
14798;DHT22;7490;63.708;20.368;2023-02-23T15:03:18;2.90;90.00
14798;DHT22;7490;63.708;20.368;2023-02-23T15:05:47;2.70;90.00
14798;DHT22;7490;63.708;20.368;2023-02-23T15:08:18;2.70;90.00
14798;DHT22;7490;63.708;20.368;2023-02-23T15:10:46;2.60;89.90
14798;DHT22;7490;63.708;20.368;2023-02-23T15:13:28;2.70;90.00
14798;DHT22;7490;63.708;20.368;2023-02-23T15:15:57;2.40;89.80
14798;DHT22;7490;63.708;20.368;2023-02-23T15:18:31;2.40;89.80
14798;DHT22;7490;63.708;20.368;2023-02-23T15:20:57;2.30;89.90
14798;DHT22;7490;63.708;20.368;2023-02-23T15:23:23;2.30;89.90
14798;DHT22;7490;63.708;20.368;2023-02-23T15:25:49;2.20;89.90
14798;DHT22;7490;63.708;20.368;2023-02-23T15:28:19;2.10;89.80
14798;DHT22;7490;63.708;20.368;2023-02-23T15:30:46;2.00;89.80
14798;DHT22;7490;63.708;20.368;2023-02-23T15:33:15;1.90;89.70
14798;DHT22;7490;63.708;20.368;2023-02-23T15:36:15;1.90;89.80
14798;DHT22;7490;63.708;20.368;2023-02-23T15:38:45;1.80;89.90
14798;DHT22;7490;63.708;20.368;2023-02-23T15:41:24;1.80;90.00
14798;DHT22;7490;63.708;20.368;2023-02-23T15:43:53;1.70;90.10
14798;DHT22;7490;63.708;20.368;2023-02-23T15:46:26;1.70;90.20
14798;DHT22;7490;63.708;20.368;2023-02-23T15:48:54;1.60;90.30
14798;DHT22;7490;63.708;20.368;2023-02-23T15:51:33;1.60;90.40
14798;DHT22;7490;63.708;20.368;2023-02-23T15:54:01;1.60;90.80
14798;DHT22;7490;63.708;20.368;2023-02-23T15:56:33;1.50;90.40
14798;DHT22;7490;63.708;20.368;2023-02-23T15:59:08;1.50;90.60
14798;DHT22;7490;63.708;20.368;2023-02-23T16:01:41;1.50;90.60
14798;DHT22;7490;63.708;20.368;2023-02-23T16:04:15;1.40;90.60
14798;DHT22;7490;63.708;20.368;2023-02-23T16:07:14;1.60;90.70
14798;DHT22;7490;63.708;20.368;2023-02-23T16:09:50;1.40;90.60
14798;DHT22;7490;63.708;20.368;2023-02-23T16:12:28;1.30;90.50
14798;DHT22;7490;63.708;20.368;2023-02-23T16:15:05;1.30;90.50
14798;DHT22;7490;63.708;20.368;2023-02-23T16:17:44;1.20;90.40
14798;DHT22;7490;63.708;20.368;2023-02-23T16:20:32;1.10;90.40
14798;DHT22;7490;63.708;20.368;2023-02-23T16:23:04;1.10;90.30
14798;DHT22;7490;63.708;20.368;2023-02-23T16:25:32;1.10;90.30
14798;DHT22;7490;63.708;20.368;2023-02-23T16:28:11;0.90;90.30
14798;DHT22;7490;63.708;20.368;2023-02-23T16:30:43;0.90;90.40
14798;DHT22;7490;63.708;20.368;2023-02-23T16:33:25;1.10;90.60
14798;DHT22;7490;63.708;20.368;2023-02-23T16:38:57;0.80;90.60
14798;DHT22;7490;63.708;20.368;2023-02-23T16:41:25;0.70;90.60
14798;DHT22;7490;63.708;20.368;2023-02-23T16:43:53;0.70;90.70
14798;DHT22;7490;63.708;20.368;2023-02-23T16:46:22;0.90;90.70
14798;DHT22;7490;63.708;20.368;2023-02-23T16:48:48;0.60;90.60
14798;DHT22;7490;63.708;20.368;2023-02-23T16:51:16;0.60;90.60
14798;DHT22;7490;63.708;20.368;2023-02-23T16:53:43;0.60;90.70
14798;DHT22;7490;63.708;20.368;2023-02-23T16:56:10;0.60;90.70
14798;DHT22;7490;63.708;20.368;2023-02-23T16:58:46;0.60;90.80
14798;DHT22;7490;63.708;20.368;2023-02-23T17:01:12;0.50;90.90
14798;DHT22;7490;63.708;20.368;2023-02-23T17:03:39;0.60;91.00
14798;DHT22;7490;63.708;20.368;2023-02-23T17:06:06;0.50;91.00
14798;DHT22;7490;63.708;20.368;2023-02-23T17:08:32;0.70;91.00
14798;DHT22;7490;63.708;20.368;2023-02-23T17:11:02;0.50;91.00
14798;DHT22;7490;63.708;20.368;2023-02-23T17:13:29;0.50;91.00
14798;DHT22;7490;63.708;20.368;2023-02-23T17:15:59;0.50;91.10
14798;DHT22;7490;63.708;20.368;2023-02-23T17:18:28;0.50;91.20
14798;DHT22;7490;63.708;20.368;2023-02-23T17:20:56;0.50;91.40
14798;DHT22;7490;63.708;20.368;2023-02-23T17:23:23;0.50;91.40
14798;DHT22;7490;63.708;20.368;2023-02-23T17:25:54;0.50;91.40
14798;DHT22;7490;63.708;20.368;2023-02-23T17:28:23;0.50;91.40
14798;DHT22;7490;63.708;20.368;2023-02-23T17:30:50;0.50;91.40
14798;DHT22;7490;63.708;20.368;2023-02-23T17:33:15;0.60;91.40
14798;DHT22;7490;63.708;20.368;2023-02-23T17:35:41;0.50;91.40
14798;DHT22;7490;63.708;20.368;2023-02-23T17:38:08;0.50;91.30
14798;DHT22;7490;63.708;20.368;2023-02-23T17:40:34;0.70;91.30
14798;DHT22;7490;63.708;20.368;2023-02-23T17:43:04;0.50;91.20
14798;DHT22;7490;63.708;20.368;2023-02-23T17:45:32;0.40;91.10
14798;DHT22;7490;63.708;20.368;2023-02-23T17:47:58;0.40;91.10
14798;DHT22;7490;63.708;20.368;2023-02-23T17:50:24;0.30;91.10
14798;DHT22;7490;63.708;20.368;2023-02-23T17:52:51;0.30;91.10
14798;DHT22;7490;63.708;20.368;2023-02-23T17:55:18;0.20;91.00
14798;DHT22;7490;63.708;20.368;2023-02-23T17:57:44;0.30;91.20
14798;DHT22;7490;63.708;20.368;2023-02-23T18:00:13;0.20;91.30
14798;DHT22;7490;63.708;20.368;2023-02-23T18:02:40;0.20;91.40
14798;DHT22;7490;63.708;20.368;2023-02-23T18:05:07;0.20;91.40
14798;DHT22;7490;63.708;20.368;2023-02-23T18:07:33;0.20;91.50
14798;DHT22;7490;63.708;20.368;2023-02-23T18:09:59;0.20;91.50
14798;DHT22;7490;63.708;20.368;2023-02-23T18:12:24;0.10;91.50
14798;DHT22;7490;63.708;20.368;2023-02-23T18:14:50;0.20;91.50
14798;DHT22;7490;63.708;20.368;2023-02-23T18:17:17;0.10;91.50
14798;DHT22;7490;63.708;20.368;2023-02-23T18:19:43;0.10;91.50
14798;DHT22;7490;63.708;20.368;2023-02-23T18:22:10;0.10;91.50
14798;DHT22;7490;63.708;20.368;2023-02-23T18:24:37;0.10;91.50
14798;DHT22;7490;63.708;20.368;2023-02-23T18:27:03;0.10;91.50
14798;DHT22;7490;63.708;20.368;2023-02-23T18:29:31;0.30;91.60
14798;DHT22;7490;63.708;20.368;2023-02-23T18:31:59;0.00;91.60